Skip Navigation Links
NOAA logo - Click to go to the NOAA homepage
NOAA's National Weather Service
Alaska Aviation Weather Unit
  NWS logo - Click to go to the NWS homepage
Left Navbar Graphic     22 AKDT = 06 GMT

   
NOAA is celebrating 200 years of science, service, and stewardship. Visit the NOAA 200th celebration Web site to learn more.
USA.gov is the U.S. Government's official Web portal to all Federal, state and local government Web resources and services.
Facebook
NWS on Facebook

Important Change Regarding the AAWU Web Presence

 

Over the last several months, the AAWU has been working to navigate its webpages to a nationally supported server. Security, as well as other needs, have necessitated the change.  We have been given an extension for the site changeover while we diligently work at addressing feedback received. As of July 14, 2017, aawu.arh.noaa.gov will be discontinued. The new AAWU web address is weather.gov/aawu. It is now live and will run in-parallel with the old site until it is discontinued on July 14, 2017. Please continue to send any feedback or questions regarding the new webpages to nws.ar.aawu.webauthors@noaa.gov.  Thank you for your patience during this time of transition.
AAWU Home :: Display TAF Add Bookmark
TAF PAOM 260534Z 2606/2706 VRB06KT P6SM SCT007 SCT025
     FM260900 32008KT P6SM VCSH SCT015 BKN025
     FM261500 32008KT P6SM SCT025 SCT050 BKN100
     FM261800 32008KT P6SM SCT050 SCT100 BKN200=

PAOM 260011Z 23007KT 10SM BKN011 OVC015 12/12 A2984= PAOM 260011Z 23007KT 10SM BKN011 OVC015 12/12 A2984 RMK AO2 CIG 008V012 T01220117= METAR PAOM 260053Z 23009KT 10SM BKN011 OVC015 12/12 A2983= PAOM 260114Z 23008KT 10SM SCT014 SCT022 OVC045 12/11 A2983= PAOM 260114Z 23008KT 10SM SCT014 SCT022 OVC045 12/11 A2983 RMK AO2 T01220111= PAOM 260141Z 23009KT 10SM FEW007 SCT016 OVC043 12/11 A2983= SPECI PAOM 260141Z 23009KT 10SM FEW007 SCT016 OVC043 12/11 A2983 RMK AO2 T01170111= METAR PAOM 260153Z 25009KT 10SM SCT008 BKN016 OVC043 12/12 A2983= PAOM 260232Z 27008KT 10SM -RA OVC010 12/12 A2983= SPECI PAOM 260232Z 27008KT 10SM -RA OVC010 12/12 A2983 RMK AO2 RAB17 CIG 006V014 P0000 T01220117= METAR PAOM 260251Z 27003KT 10SM SCT010 OVC019 12/12 A2982= METAR PAOM 260253Z 24003KT 10SM SCT008 SCT013 OVC021 12/12 A2982 RMK AO2 RAB17E42 SLP099 P0000 60000 T01220117 56006= METAR PAOM 260353Z 30005KT 10SM SCT008 SCT012 OVC021 14/12 A2982= METAR PAOM 260453Z 30008KT 10SM SCT012 SCT029 BKN070 14/12 A2982= METAR PAOM 260553Z 35007KT 10SM FEW012 FEW025 BKN095 14/12 A2983=
 Alaska TAF Map

NOAA's National Weather Service
Alaska Aviation Weather Unit
6930 Sand Lake Road
Anchorage, AK 99502-1845
Disclaimer
Credits
Glossary
Privacy Policy
About Us
Career Opportunities
Contact AAWU Internet Services Site last modified: April, 17th 2012